Time;durP1;ratioP1;P1;durP2;ratioP2;P2;SDS_P1;SDS_P2;PMS_P1;PMS_P2;Temp;Humidity;BMP_temperature;BMP_pressure;BME280_temperature;BME280_humidity;BME280_pressure;Samples;Min_cycle;Max_cycle;Signal;HPM_P1;HPM_P2
2021/03/01 00:01:08;;;;;;;12.30;11.00;;;8.30;69.10;;;;;;5093074;28;20444;-73
2021/03/01 00:03:35;;;;;;;11.77;8.93;;;8.20;68.80;;;;;;5093022;28;20926;-73
2021/03/01 00:06:01;;;;;;;12.87;10.23;;;8.20;68.50;;;;;;5092937;28;20482;-74
2021/03/01 00:08:28;;;;;;;10.00;8.27;;;8.10;68.50;;;;;;5094552;28;20439;-74
2021/03/01 00:10:54;;;;;;;13.03;9.90;;;8.10;68.70;;;;;;5096641;28;20451;-73
2021/03/01 00:13:21;;;;;;;14.10;10.37;;;8.00;68.70;;;;;;5096539;28;20444;-74
2021/03/01 00:15:48;;;;;;;16.43;11.80;;;8.00;68.90;;;;;;5096401;28;20463;-73
2021/03/01 00:18:14;;;;;;;14.70;11.03;;;8.00;69.20;;;;;;5096457;28;20466;-73
2021/03/01 00:20:40;;;;;;;19.20;11.70;;;7.90;69.30;;;;;;5096121;28;20954;-73
2021/03/01 00:23:09;;;;;;;17.43;12.90;;;7.90;69.40;;;;;;5096348;28;20447;-73
2021/03/01 00:25:38;;;;;;;17.10;12.40;;;7.90;69.60;;;;;;5096292;28;20468;-73
2021/03/01 00:28:05;;;;;;;15.40;11.50;;;7.90;69.80;;;;;;5096265;28;20442;-73
2021/03/01 00:30:31;;;;;;;19.03;12.70;;;7.90;69.80;;;;;;5096277;28;20466;-74
2021/03/01 00:32:58;;;;;;;16.47;11.60;;;7.90;69.90;;;;;;5096226;28;20431;-73
2021/03/01 00:35:24;;;;;;;19.27;12.33;;;7.90;70.20;;;;;;5096075;28;20460;-73
2021/03/01 00:37:51;;;;;;;17.77;11.80;;;7.80;70.40;;;;;;5096051;28;20797;-73
2021/03/01 00:40:17;;;;;;;18.50;12.60;;;7.80;70.50;;;;;;5096037;28;20501;-73
2021/03/01 00:42:44;;;;;;;16.33;13.20;;;7.80;70.80;;;;;;5096022;28;20444;-74
2021/03/01 00:45:11;;;;;;;17.70;12.13;;;7.80;71.00;;;;;;5095900;28;20459;-74
2021/03/01 00:47:38;;;;;;;18.40;12.80;;;7.80;71.30;;;;;;5096001;28;20449;-73
2021/03/01 00:50:04;;;;;;;19.80;13.90;;;7.80;71.50;;;;;;5095881;28;20447;-73
2021/03/01 00:52:31;;;;;;;18.13;12.70;;;7.80;71.50;;;;;;5095814;28;20443;-73
2021/03/01 00:54:58;;;;;;;17.00;12.73;;;7.70;71.40;;;;;;5095759;28;20467;-74
2021/03/01 00:57:24;;;;;;;15.97;11.87;;;7.70;71.20;;;;;;5095776;28;20808;-74
2021/03/01 00:59:51;;;;;;;21.37;12.17;;;7.70;71.20;;;;;;5095626;28;20472;-73
2021/03/01 01:02:17;;;;;;;13.87;11.60;;;7.60;70.80;;;;;;5095649;28;20439;-74
2021/03/01 01:04:43;;;;;;;17.87;13.87;;;7.60;70.90;;;;;;5095371;28;20468;-73
2021/03/01 01:07:10;;;;;;;19.00;14.70;;;7.60;71.20;;;;;;5095562;28;20425;-74
2021/03/01 01:09:36;;;;;;;20.30;14.30;;;7.60;71.30;;;;;;5095206;28;20444;-73
2021/03/01 01:12:02;;;;;;;17.73;13.80;;;7.60;71.40;;;;;;5095438;28;20455;-73
2021/03/01 01:14:29;;;;;;;21.00;13.47;;;7.50;71.50;;;;;;5095322;28;20460;-73
2021/03/01 01:16:56;;;;;;;17.07;13.80;;;7.50;71.60;;;;;;5095257;28;20444;-73
2021/03/01 01:19:22;;;;;;;19.47;14.07;;;7.50;71.70;;;;;;5094231;28;20482;-74
2021/03/01 01:21:48;;;;;;;19.50;15.37;;;7.50;71.90;;;;;;5095663;28;20439;-73
2021/03/01 01:24:14;;;;;;;18.70;13.77;;;7.50;71.90;;;;;;5095621;28;20424;-73
2021/03/01 01:26:40;;;;;;;19.50;13.23;;;7.50;71.70;;;;;;5095353;28;20512;-73
2021/03/01 01:29:07;;;;;;;16.60;13.87;;;7.40;71.70;;;;;;5095086;28;20435;-73
2021/03/01 01:31:33;;;;;;;20.70;14.50;;;7.40;71.70;;;;;;5095077;28;20440;-73
2021/03/01 01:34:00;;;;;;;21.00;15.03;;;7.40;71.80;;;;;;5094934;28;20444;-73
2021/03/01 01:36:26;;;;;;;18.70;14.50;;;7.30;71.80;;;;;;5094952;28;20513;-73
2021/03/01 01:38:53;;;;;;;17.17;13.27;;;7.30;71.90;;;;;;5094878;28;20467;-73
2021/03/01 01:41:19;;;;;;;18.80;14.63;;;7.30;71.90;;;;;;5094850;28;20494;-73
2021/03/01 01:43:46;;;;;;;19.30;14.73;;;7.30;72.00;;;;;;5094519;28;20443;-73
2021/03/01 01:46:12;;;;;;;22.73;17.80;;;7.20;72.00;;;;;;5094782;28;20466;-74
2021/03/01 01:48:39;;;;;;;21.30;17.03;;;7.20;72.20;;;;;;5094865;28;20443;-73
2021/03/01 01:51:06;;;;;;;18.40;15.40;;;7.20;72.30;;;;;;5094801;28;20489;-73
2021/03/01 01:53:33;;;;;;;25.90;17.43;;;7.20;73.30;;;;;;5094737;28;20448;-73
2021/03/01 01:56:00;;;;;;;20.17;15.27;;;7.20;72.70;;;;;;5094691;28;20464;-73
2021/03/01 01:58:27;;;;;;;22.20;17.37;;;7.20;72.80;;;;;;5094329;28;20475;-73
2021/03/01 02:00:53;;;;;;;22.63;16.30;;;7.20;73.00;;;;;;5094354;28;20937;-74
2021/03/01 02:03:39;;;;;;;17.33;14.50;;;7.10;73.00;;;;;;5094305;28;20497;-74
2021/03/01 02:06:14;;;;;;;23.03;16.40;;;7.10;72.70;;;;;;5094232;28;20490;-73
2021/03/01 02:09:01;;;;;;;21.77;16.73;;;7.10;72.40;;;;;;5094667;28;20424;-73
2021/03/01 02:11:35;;;;;;;21.37;16.80;;;7.00;72.40;;;;;;5094351;28;20478;-73
2021/03/01 02:14:09;;;;;;;23.60;17.67;;;7.00;72.60;;;;;;5093987;28;20975;-73
2021/03/01 02:16:36;;;;;;;20.07;16.13;;;7.00;72.70;;;;;;5094297;28;20428;-73
2021/03/01 02:19:02;;;;;;;24.70;19.73;;;7.00;73.10;;;;;;5093825;28;20848;-73
2021/03/01 02:21:31;;;;;;;24.73;18.03;;;7.00;73.40;;;;;;5094210;28;20447;-73
2021/03/01 02:23:58;;;;;;;24.10;18.33;;;7.00;73.80;;;;;;5094116;28;20440;-73
2021/03/01 02:26:27;;;;;;;25.57;18.87;;;7.00;75.00;;;;;;5094001;28;20475;-73
2021/03/01 02:28:59;;;;;;;23.27;17.50;;;6.90;74.30;;;;;;5094021;28;20436;-73
2021/03/01 02:31:27;;;;;;;27.43;18.80;;;6.90;74.60;;;;;;5093731;28;20424;-73
2021/03/01 02:33:57;;;;;;;26.10;19.53;;;6.90;74.70;;;;;;5094258;28;20444;-73
2021/03/01 02:36:28;;;;;;;24.50;20.30;;;6.90;74.90;;;;;;5093579;28;20471;-73
2021/03/01 02:38:56;;;;;;;26.40;19.63;;;6.90;75.00;;;;;;5093861;28;20459;-73
2021/03/01 02:41:25;;;;;;;27.80;20.80;;;6.90;75.80;;;;;;5093781;28;20493;-73
2021/03/01 02:43:53;;;;;;;25.23;20.13;;;6.90;74.90;;;;;;5093868;28;20450;-73
2021/03/01 02:46:19;;;;;;;25.60;19.40;;;6.90;75.10;;;;;;5093793;28;20542;-73
2021/03/01 02:48:47;;;;;;;21.97;16.73;;;6.80;75.00;;;;;;5093779;28;20451;-73
2021/03/01 02:51:14;;;;;;;21.00;17.47;;;6.80;74.70;;;;;;5093782;28;20845;-73
2021/03/01 02:53:42;;;;;;;21.50;17.10;;;6.70;74.30;;;;;;5093412;28;21002;-73
2021/03/01 02:56:10;;;;;;;25.10;16.60;;;6.60;74.10;;;;;;5093293;28;20475;-73
2021/03/01 02:58:40;;;;;;;21.40;17.10;;;6.60;73.80;;;;;;5093545;28;20471;-73
2021/03/01 03:01:07;;;;;;;23.07;18.17;;;6.50;73.80;;;;;;5094409;28;20440;-73
2021/03/01 03:03:34;;;;;;;22.17;17.43;;;6.50;73.90;;;;;;5093587;28;20502;-73
2021/03/01 03:06:01;;;;;;;22.73;17.87;;;6.50;73.90;;;;;;5093251;28;21012;-73
2021/03/01 03:08:30;;;;;;;25.00;19.13;;;6.50;73.90;;;;;;5093536;28;20435;-73
2021/03/01 03:10:58;;;;;;;22.10;17.87;;;6.40;74.00;;;;;;5093467;28;20443;-73
2021/03/01 03:13:25;;;;;;;23.13;17.50;;;6.40;73.90;;;;;;5093533;28;20790;-73
2021/03/01 03:15:59;;;;;;;25.20;18.60;;;6.40;74.00;;;;;;5093436;28;20981;-73
2021/03/01 03:18:26;;;;;;;24.33;18.80;;;6.40;74.20;;;;;;5093630;28;20487;-73
2021/03/01 03:20:53;;;;;;;25.33;20.60;;;6.40;74.50;;;;;;5093649;28;20444;-73
2021/03/01 03:23:19;;;;;;;25.60;20.37;;;6.40;74.70;;;;;;5093467;28;20450;-73
2021/03/01 03:25:46;;;;;;;24.40;19.50;;;6.40;75.00;;;;;;5093290;28;20463;-73
2021/03/01 03:28:12;;;;;;;25.30;18.60;;;6.40;75.10;;;;;;5093310;28;20509;-73
2021/03/01 03:30:38;;;;;;;25.83;18.90;;;6.40;75.30;;;;;;5093002;28;20933;-73
2021/03/01 03:33:06;;;;;;;26.37;19.23;;;6.40;75.70;;;;;;5093070;28;20454;-73
2021/03/01 03:35:33;;;;;;;32.57;21.53;;;6.40;76.00;;;;;;5093239;28;20543;-73
2021/03/01 03:38:04;;;;;;;27.97;20.00;;;6.40;76.40;;;;;;5092889;28;20816;-73
2021/03/01 03:40:32;;;;;;;25.90;20.20;;;6.40;76.50;;;;;;5093311;28;20439;-73
2021/03/01 03:42:59;;;;;;;24.33;18.93;;;6.40;77.00;;;;;;5094143;28;20444;-73
2021/03/01 03:45:26;;;;;;;26.23;19.53;;;6.30;77.20;;;;;;5096804;28;20459;-73
2021/03/01 03:47:54;;;;;;;25.27;19.03;;;6.40;77.30;;;;;;5097047;28;20444;-73
2021/03/01 03:50:23;;;;;;;23.30;18.33;;;6.40;77.30;;;;;;5096768;28;20948;-73
2021/03/01 03:52:55;;;;;;;25.73;20.00;;;6.40;77.20;;;;;;5096976;28;20450;-73
2021/03/01 03:55:22;;;;;;;27.23;18.80;;;6.40;77.30;;;;;;5096877;28;20463;-73
2021/03/01 03:57:56;;;;;;;27.20;20.40;;;6.30;77.00;;;;;;5096883;28;20500;-73
2021/03/01 04:00:24;;;;;;;23.57;18.33;;;6.30;76.90;;;;;;5096596;28;20428;-73
2021/03/01 04:02:53;;;;;;;25.17;18.30;;;6.30;76.90;;;;;;5096836;28;20439;-73
2021/03/01 04:05:20;;;;;;;21.33;16.93;;;6.30;77.00;;;;;;5096754;28;20879;-73
2021/03/01 04:07:48;;;;;;;24.37;18.47;;;6.30;77.00;;;;;;5096679;28;20446;-73
2021/03/01 04:10:14;;;;;;;23.10;18.03;;;6.30;77.00;;;;;;5096729;28;20489;-73
2021/03/01 04:12:44;;;;;;;23.80;17.90;;;6.20;76.90;;;;;;5096638;28;20439;-73
2021/03/01 04:15:15;;;;;;;21.67;17.97;;;6.20;76.90;;;;;;5096911;28;20969;-73
2021/03/01 04:17:43;;;;;;;22.80;17.40;;;6.20;77.30;;;;;;5096940;28;20424;-73
2021/03/01 04:20:11;;;;;;;24.30;18.40;;;6.20;77.50;;;;;;5096636;28;20480;-73
2021/03/01 04:22:39;;;;;;;23.07;17.83;;;6.10;77.80;;;;;;5096466;28;20813;-73
2021/03/01 04:25:08;;;;;;;26.00;18.50;;;6.10;78.20;;;;;;5096391;28;20459;-73
2021/03/01 04:27:37;;;;;;;27.97;20.50;;;6.10;79.00;;;;;;5096307;28;20828;-73
2021/03/01 04:30:07;;;;;;;27.20;20.07;;;6.10;79.70;;;;;;5096300;28;20467;-73
2021/03/01 04:32:35;;;;;;;28.17;18.60;;;6.10;80.80;;;;;;5096228;28;20448;-73
2021/03/01 04:35:03;;;;;;;37.90;22.20;;;6.10;81.70;;;;;;5096165;28;20470;-73
2021/03/01 04:37:30;;;;;;;25.37;18.90;;;6.10;82.40;;;;;;5096087;28;20452;-73
2021/03/01 04:39:56;;;;;;;31.73;22.10;;;6.10;83.00;;;;;;5096021;28;20498;-73
2021/03/01 04:42:24;;;;;;;27.27;19.30;;;6.20;83.50;;;;;;5096079;28;20443;-73
2021/03/01 04:44:51;;;;;;;30.60;20.77;;;6.20;84.00;;;;;;5095934;28;20459;-73
2021/03/01 04:47:18;;;;;;;26.00;19.87;;;6.20;84.40;;;;;;5095935;28;20443;-73
2021/03/01 04:49:46;;;;;;;28.73;20.87;;;6.20;84.70;;;;;;5095899;28;20493;-73
2021/03/01 04:52:14;;;;;;;28.90;20.90;;;6.20;85.00;;;;;;5095811;28;20505;-73
2021/03/01 04:54:41;;;;;;;25.17;19.10;;;6.20;85.30;;;;;;5095571;28;20459;-73
2021/03/01 04:57:08;;;;;;;29.33;18.97;;;6.20;85.60;;;;;;5095434;28;20934;-73
2021/03/01 04:59:36;;;;;;;29.40;20.43;;;6.20;85.80;;;;;;5095808;28;20529;-73
2021/03/01 05:02:03;;;;;;;27.43;19.60;;;6.30;86.30;;;;;;5095393;28;20986;-73
2021/03/01 05:04:30;;;;;;;26.53;20.00;;;6.30;86.30;;;;;;5095123;28;20464;-73
2021/03/01 05:06:57;;;;;;;31.40;21.63;;;6.20;86.30;;;;;;5095261;28;20452;-73
2021/03/01 05:09:23;;;;;;;29.63;20.70;;;6.30;86.50;;;;;;5095559;28;20489;-73
2021/03/01 05:11:50;;;;;;;34.27;21.47;;;6.30;86.70;;;;;;5095511;28;20493;-73
2021/03/01 05:14:16;;;;;;;31.53;23.53;;;6.30;86.80;;;;;;5095285;28;20447;-73
2021/03/01 05:16:43;;;;;;;31.50;22.73;;;6.30;87.00;;;;;;5095327;28;20439;-73
2021/03/01 05:19:10;;;;;;;32.93;22.37;;;6.40;87.20;;;;;;5094974;28;21011;-73
2021/03/01 05:21:36;;;;;;;32.30;22.77;;;6.40;87.20;;;;;;5095310;28;20451;-73
2021/03/01 05:24:02;;;;;;;29.73;21.47;;;6.40;87.30;;;;;;5095175;28;20543;-73
2021/03/01 05:26:29;;;;;;;31.43;20.63;;;6.40;87.30;;;;;;5095236;28;20450;-73
2021/03/01 05:28:56;;;;;;;31.60;21.90;;;6.40;87.40;;;;;;5095411;28;20436;-73
2021/03/01 05:31:24;;;;;;;29.33;20.23;;;6.40;87.40;;;;;;5095167;28;20428;-73
2021/03/01 05:33:51;;;;;;;28.80;20.70;;;6.50;87.40;;;;;;5094930;28;20448;-73
2021/03/01 05:36:17;;;;;;;32.10;20.67;;;6.40;87.30;;;;;;5095044;28;20942;-73
2021/03/01 05:38:44;;;;;;;27.47;19.77;;;6.40;87.20;;;;;;5094961;28;20476;-74
2021/03/01 05:41:10;;;;;;;27.83;19.33;;;6.50;87.30;;;;;;5094986;28;20439;-73
2021/03/01 05:43:37;;;;;;;29.13;21.17;;;6.50;87.30;;;;;;5094933;28;20452;-73
2021/03/01 05:46:04;;;;;;;27.83;19.90;;;6.50;87.40;;;;;;5094581;28;21000;-73
2021/03/01 05:48:31;;;;;;;30.27;21.80;;;6.50;87.40;;;;;;5094753;28;20435;-73
2021/03/01 05:51:00;;;;;;;32.93;21.53;;;6.50;87.40;;;;;;5094813;28;20428;-73
2021/03/01 05:53:30;;;;;;;28.80;20.97;;;6.50;87.60;;;;;;5094710;28;20444;-72
2021/03/01 05:55:58;;;;;;;29.50;20.70;;;6.50;87.60;;;;;;5094541;28;20459;-72
2021/03/01 05:58:26;;;;;;;28.13;20.17;;;6.50;87.60;;;;;;5094789;28;20444;-73
2021/03/01 06:00:53;;;;;;;28.57;21.83;;;6.50;87.60;;;;;;5094595;28;20428;-73
2021/03/01 06:03:20;;;;;;;28.30;19.40;;;6.50;87.60;;;;;;5094479;28;20937;-73
2021/03/01 06:05:46;;;;;;;30.53;20.70;;;6.50;87.60;;;;;;5093609;28;20480;-73
2021/03/01 06:08:15;;;;;;;29.23;20.33;;;6.50;87.60;;;;;;5094366;28;20451;-73
2021/03/01 06:10:41;;;;;;;31.03;21.10;;;6.50;87.70;;;;;;5094385;28;20444;-73
2021/03/01 06:13:08;;;;;;;30.83;21.43;;;6.50;87.70;;;;;;5094452;28;20439;-73
2021/03/01 06:15:36;;;;;;;31.67;23.03;;;6.50;87.80;;;;;;5093960;28;20467;-73
2021/03/01 06:18:10;;;;;;;30.40;21.30;;;6.50;88.00;;;;;;5094325;28;20440;-73
2021/03/01 06:20:37;;;;;;;30.70;20.73;;;6.50;88.20;;;;;;5094096;28;20443;-73
2021/03/01 06:23:04;;;;;;;43.93;21.70;;;6.50;88.30;;;;;;5094081;28;20447;-73
2021/03/01 06:25:32;;;;;;;27.97;20.80;;;6.50;88.40;;;;;;5093794;28;20548;-74
2021/03/01 06:28:00;;;;;;;29.90;20.83;;;6.50;88.20;;;;;;5093863;28;20455;-73
2021/03/01 06:30:29;;;;;;;33.20;22.03;;;6.50;88.20;;;;;;5093953;28;20439;-73
2021/03/01 06:33:08;;;;;;;28.87;20.60;;;6.50;88.20;;;;;;5093971;28;20443;-73
2021/03/01 06:35:37;;;;;;;32.27;21.20;;;6.50;88.20;;;;;;5093805;28;20467;-73
2021/03/01 06:38:34;;;;;;;28.37;19.80;;;6.60;88.50;;;;;;5094458;28;20497;-73
2021/03/01 06:41:16;;;;;;;32.30;20.57;;;6.60;88.50;;;;;;5031379;28;20518;-73
2021/03/01 06:43:54;;;;;;;31.27;22.10;;;6.60;88.50;;;;;;5085551;28;20460;-73
2021/03/01 06:46:22;;;;;;;26.30;19.77;;;6.60;88.50;;;;;;5093623;28;20467;-73
2021/03/01 06:48:48;;;;;;;28.13;20.63;;;6.60;88.60;;;;;;5093866;28;20427;-73
2021/03/01 06:51:15;;;;;;;29.10;20.30;;;6.60;88.70;;;;;;5094186;28;20451;-73
2021/03/01 06:53:41;;;;;;;29.40;21.60;;;6.60;88.60;;;;;;5093852;28;20435;-73
2021/03/01 06:56:11;;;;;;;31.43;21.40;;;6.70;88.60;;;;;;5093689;28;20459;-73
2021/03/01 06:58:40;;;;;;;30.60;21.73;;;6.70;88.60;;;;;;5093610;28;20475;-73
2021/03/01 07:01:10;;;;;;;34.03;22.53;;;6.70;88.50;;;;;;5093630;28;20447;-73
2021/03/01 07:03:37;;;;;;;29.87;21.30;;;6.70;88.40;;;;;;5093648;28;20497;-73
2021/03/01 07:06:05;;;;;;;30.30;22.13;;;6.70;88.40;;;;;;5093383;28;20496;-73
2021/03/01 07:08:37;;;;;;;32.37;22.10;;;6.70;88.60;;;;;;5093273;28;20906;-73
2021/03/01 07:11:05;;;;;;;31.23;22.50;;;6.70;88.40;;;;;;5093802;28;20424;-73
2021/03/01 07:13:32;;;;;;;37.03;21.53;;;6.70;88.40;;;;;;5093517;28;20447;-74
2021/03/01 07:16:01;;;;;;;30.90;22.23;;;6.70;88.30;;;;;;5093387;28;20472;-73
2021/03/01 07:18:29;;;;;;;31.97;21.80;;;6.80;88.40;;;;;;5095213;28;20451;-73
2021/03/01 07:20:57;;;;;;;28.93;21.07;;;6.90;89.20;;;;;;5097742;28;20534;-73
2021/03/01 07:23:24;;;;;;;32.50;23.93;;;6.90;88.20;;;;;;5097946;28;20440;-73
2021/03/01 07:25:51;;;;;;;34.60;23.60;;;7.00;88.10;;;;;;5097576;28;20467;-73
2021/03/01 07:28:19;;;;;;;33.90;23.67;;;7.00;88.00;;;;;;5097601;28;20450;-73
2021/03/01 07:30:49;;;;;;;35.30;23.87;;;7.00;88.00;;;;;;5097464;28;20462;-73
2021/03/01 07:33:16;;;;;;;36.00;23.60;;;7.10;88.00;;;;;;5097713;28;20512;-73
2021/03/01 07:35:44;;;;;;;33.57;24.03;;;7.20;88.00;;;;;;5097003;28;20888;-73
2021/03/01 07:38:11;;;;;;;36.40;23.30;;;7.20;88.00;;;;;;5097345;28;20478;-73
2021/03/01 07:40:37;;;;;;;33.70;23.20;;;7.30;88.10;;;;;;5097210;28;20475;-74
2021/03/01 07:43:04;;;;;;;32.47;23.73;;;7.30;87.90;;;;;;5097278;28;20423;-73
2021/03/01 07:45:31;;;;;;;37.57;23.17;;;7.40;87.80;;;;;;5097250;28;20459;-74
2021/03/01 07:48:00;;;;;;;34.83;24.00;;;7.40;87.70;;;;;;5099148;28;20454;-73
2021/03/01 07:50:39;;;;;;;29.57;21.40;;;7.50;87.50;;;;;;5098516;28;20444;-74
2021/03/01 07:53:05;;;;;;;30.43;21.93;;;7.60;87.20;;;;;;5098475;28;20446;-74
2021/03/01 07:55:31;;;;;;;27.43;20.50;;;7.60;86.80;;;;;;5097490;28;20460;-74
2021/03/01 07:58:03;;;;;;;30.40;21.70;;;7.60;86.20;;;;;;5097029;28;20424;-74
2021/03/01 08:00:30;;;;;;;37.23;23.60;;;7.60;86.00;;;;;;5096865;28;20466;-73
2021/03/01 08:02:57;;;;;;;29.30;21.30;;;7.70;86.20;;;;;;5096968;28;20858;-73
2021/03/01 08:05:26;;;;;;;30.87;21.97;;;7.70;86.20;;;;;;5096889;28;20484;-73
2021/03/01 08:07:54;;;;;;;28.70;21.10;;;7.80;86.10;;;;;;5096982;28;20440;-74
2021/03/01 08:10:44;;;;;;;34.17;23.43;;;7.80;85.90;;;;;;5096629;28;20488;-73
2021/03/01 08:13:11;;;;;;;34.60;23.83;;;7.80;85.60;;;;;;5096631;28;20424;-74
2021/03/01 08:15:39;;;;;;;38.13;25.23;;;7.90;85.40;;;;;;5096552;28;20474;-74
2021/03/01 08:18:09;;;;;;;38.60;25.40;;;7.90;85.20;;;;;;5096539;28;20440;-74
2021/03/01 08:20:44;;;;;;;35.90;25.77;;;7.90;85.00;;;;;;5096394;28;20474;-73
2021/03/01 08:23:33;;;;;;;36.97;25.07;;;7.90;84.90;;;;;;5096493;28;20477;-74
2021/03/01 08:26:02;;;;;;;36.83;25.77;;;8.00;85.00;;;;;;5096325;28;20466;-74
2021/03/01 08:28:58;;;;;;;36.10;25.93;;;8.00;84.70;;;;;;5095707;28;20533;-74
2021/03/01 08:31:32;;;;;;;36.57;24.67;;;8.10;84.60;;;;;;5096607;28;20420;-74
2021/03/01 08:34:33;;;;;;;41.00;25.63;;;8.20;84.50;;;;;;5096064;28;20941;-74
2021/03/01 08:37:01;;;;;;;35.30;25.20;;;8.20;84.30;;;;;;5096300;28;20423;-74
2021/03/01 08:39:57;;;;;;;38.87;26.80;;;8.30;84.10;;;;;;5096113;28;20508;-77
2021/03/01 08:42:49;;;;;;;38.17;27.77;;;8.40;83.80;;;;;;5096169;28;20432;-73
2021/03/01 08:45:37;;;;;;;36.17;26.07;;;8.40;83.40;;;;;;5096096;28;20521;-74
2021/03/01 08:48:08;;;;;;;35.90;25.87;;;8.40;83.20;;;;;;5096095;28;20428;-74
2021/03/01 08:50:36;;;;;;;34.57;24.90;;;8.40;83.00;;;;;;5096047;28;20424;-74
2021/03/01 08:53:02;;;;;;;32.23;24.73;;;8.40;82.70;;;;;;5095940;28;20499;-74
2021/03/01 08:55:29;;;;;;;33.73;23.53;;;8.40;82.80;;;;;;5095864;28;20478;-74
2021/03/01 08:58:00;;;;;;;31.97;22.90;;;8.50;82.90;;;;;;5095700;28;20910;-74
2021/03/01 09:00:28;;;;;;;32.30;22.50;;;8.60;83.00;;;;;;5095758;28;20580;-74
2021/03/01 09:03:17;;;;;;;38.27;25.67;;;8.60;82.70;;;;;;5095566;28;20814;-74
2021/03/01 09:05:46;;;;;;;33.70;24.47;;;8.70;82.60;;;;;;5095256;28;21042;-74
2021/03/01 09:08:13;;;;;;;31.80;24.73;;;8.70;82.30;;;;;;5095631;28;20446;-74
2021/03/01 09:10:44;;;;;;;33.07;25.27;;;8.80;82.40;;;;;;5095272;28;20531;-74
2021/03/01 09:13:18;;;;;;;29.27;23.07;;;9.00;82.50;;;;;;5095606;28;20408;-74
2021/03/01 09:15:45;;;;;;;33.00;24.30;;;9.10;82.40;;;;;;5095413;28;20463;-74
2021/03/01 09:18:12;;;;;;;29.63;22.53;;;9.30;82.70;;;;;;5095488;28;20805;-74
2021/03/01 09:20:41;;;;;;;30.70;22.53;;;9.40;82.60;;;;;;5095380;28;20460;-74
2021/03/01 09:23:08;;;;;;;30.17;21.60;;;9.50;82.10;;;;;;5095464;28;20438;-74
2021/03/01 09:25:35;;;;;;;27.90;22.20;;;9.50;81.60;;;;;;5095269;28;20462;-74
2021/03/01 09:28:04;;;;;;;30.30;20.97;;;9.60;81.50;;;;;;5095263;28;20467;-74
2021/03/01 09:30:31;;;;;;;26.03;19.97;;;9.60;81.30;;;;;;5095117;28;20830;-74
2021/03/01 09:33:00;;;;;;;27.33;21.03;;;9.60;81.20;;;;;;5095307;28;20534;-74
2021/03/01 09:35:28;;;;;;;26.20;18.80;;;9.60;80.90;;;;;;5094841;28;20996;-74
2021/03/01 09:37:55;;;;;;;28.90;21.03;;;9.70;80.60;;;;;;5095133;28;20428;-74
2021/03/01 09:40:23;;;;;;;29.20;21.27;;;9.70;80.20;;;;;;5094221;28;20553;-74
2021/03/01 09:42:51;;;;;;;23.47;19.10;;;9.80;80.30;;;;;;5094602;28;20440;-74
2021/03/01 09:45:20;;;;;;;25.93;20.17;;;9.90;80.40;;;;;;5094835;28;20467;-74
2021/03/01 09:47:48;;;;;;;24.10;19.27;;;9.90;80.60;;;;;;5094631;28;20455;-74
2021/03/01 09:50:16;;;;;;;29.10;19.90;;;9.90;80.00;;;;;;5094786;28;20440;-74
2021/03/01 09:52:46;;;;;;;24.60;18.70;;;10.00;79.40;;;;;;5094688;28;20508;-74
2021/03/01 09:55:12;;;;;;;21.93;18.80;;;10.10;78.70;;;;;;5094517;28;20513;-74
2021/03/01 09:57:39;;;;;;;31.90;20.47;;;10.10;78.60;;;;;;5094602;28;20455;-74
2021/03/01 10:00:24;;;;;;;24.43;18.13;;;10.20;78.50;;;;;;5094232;28;20479;-74
2021/03/01 10:02:59;;;;;;;23.17;19.07;;;10.40;78.20;;;;;;5094554;28;20435;-74
2021/03/01 10:05:26;;;;;;;23.00;16.63;;;10.50;78.00;;;;;;5094104;28;20996;-74
2021/03/01 10:08:01;;;;;;;22.30;17.43;;;10.60;77.60;;;;;;5094423;28;20827;-74
2021/03/01 10:10:36;;;;;;;22.90;18.13;;;10.80;77.20;;;;;;5094478;28;20427;-74
2021/03/01 10:13:03;;;;;;;23.87;19.30;;;10.90;76.50;;;;;;5094338;28;20444;-74
2021/03/01 10:15:41;;;;;;;24.60;18.23;;;11.10;76.20;;;;;;5094223;28;20467;-74
2021/03/01 10:18:09;;;;;;;24.10;19.50;;;11.30;76.00;;;;;;5094347;28;20436;-73
2021/03/01 10:20:47;;;;;;;22.07;18.70;;;11.50;75.70;;;;;;5094554;28;20451;-73
2021/03/01 10:23:25;;;;;;;24.30;20.50;;;11.80;74.70;;;;;;5094309;28;20423;-73
2021/03/01 10:26:01;;;;;;;22.50;18.40;;;12.00;73.50;;;;;;5093738;28;20833;-73
2021/03/01 10:28:31;;;;;;;21.47;17.77;;;12.40;72.70;;;;;;5094148;28;20424;-73
2021/03/01 10:31:00;;;;;;;21.40;17.70;;;12.80;71.20;;;;;;5093714;28;20999;-73
2021/03/01 10:33:26;;;;;;;22.90;19.13;;;13.30;69.00;;;;;;5094044;28;20428;-73
2021/03/01 10:36:07;;;;;;;22.70;17.73;;;13.70;66.40;;;;;;5094019;28;20459;-73
2021/03/01 10:38:48;;;;;;;23.90;19.50;;;14.30;63.80;;;;;;5094134;28;20428;-73
2021/03/01 10:41:16;;;;;;;23.33;17.70;;;14.80;61.30;;;;;;5094112;28;20416;-73
2021/03/01 10:43:50;;;;;;;22.47;17.77;;;15.30;59.80;;;;;;5093724;28;20802;-73
2021/03/01 10:46:31;;;;;;;20.47;18.07;;;15.80;58.00;;;;;;5093774;28;20467;-74
2021/03/01 10:48:58;;;;;;;20.27;17.07;;;16.30;56.00;;;;;;5093788;28;20416;-74
2021/03/01 10:51:24;;;;;;;21.83;17.20;;;16.80;54.60;;;;;;5093541;28;20777;-75
2021/03/01 10:53:50;;;;;;;20.13;17.30;;;17.20;53.20;;;;;;5093592;28;20447;-75
2021/03/01 10:56:16;;;;;;;17.90;16.00;;;17.70;51.80;;;;;;5093574;28;20474;-73
2021/03/01 10:58:43;;;;;;;17.00;15.10;;;18.10;50.30;;;;;;5093561;28;20440;-73
2021/03/01 11:01:09;;;;;;;18.17;14.43;;;18.50;49.40;;;;;;5093604;28;20439;-73
2021/03/01 11:03:36;;;;;;;17.93;16.03;;;19.00;48.40;;;;;;5093881;28;20440;-73
2021/03/01 11:06:02;;;;;;;16.63;13.83;;;19.40;46.10;;;;;;5093142;28;20486;-75
2021/03/01 11:08:28;;;;;;;16.20;14.60;;;19.80;45.80;;;;;;5093564;28;20443;-75
2021/03/01 11:10:55;;;;;;;15.60;14.00;;;20.10;44.70;;;;;;5093402;28;20802;-75
2021/03/01 11:13:21;;;;;;;17.20;14.90;;;20.50;43.10;;;;;;5093520;28;20447;-75
2021/03/01 11:15:47;;;;;;;17.33;15.57;;;20.90;42.10;;;;;;5093959;28;20478;-75
2021/03/01 11:18:14;;;;;;;15.90;14.20;;;21.20;41.60;;;;;;5093494;28;20443;-75
2021/03/01 11:20:41;;;;;;;15.60;13.97;;;21.50;41.30;;;;;;5093082;28;21015;-74
2021/03/01 11:23:07;;;;;;;16.20;14.60;;;21.90;40.40;;;;;;5093153;28;20938;-73
2021/03/01 11:25:34;;;;;;;15.80;14.03;;;22.20;39.70;;;;;;5093466;28;20464;-73
2021/03/01 11:28:01;;;;;;;15.23;13.67;;;22.60;39.10;;;;;;5093425;28;20529;-73
2021/03/01 11:30:28;;;;;;;15.50;14.00;;;22.80;36.90;;;;;;5093414;28;20447;-75
2021/03/01 11:32:54;;;;;;;14.40;12.93;;;23.10;38.00;;;;;;5093362;28;20450;-73
2021/03/01 11:35:20;;;;;;;13.20;12.00;;;23.40;37.30;;;;;;5092973;28;20842;-75
2021/03/01 11:37:47;;;;;;;14.47;13.07;;;23.80;36.40;;;;;;5093444;28;20549;-74
2021/03/01 11:40:14;;;;;;;15.63;13.77;;;24.10;35.80;;;;;;5093201;28;20468;-73
2021/03/01 11:42:40;;;;;;;15.17;12.50;;;24.50;35.00;;;;;;5092934;28;20493;-73
2021/03/01 11:45:08;;;;;;;14.03;12.73;;;24.80;34.40;;;;;;5092830;28;20992;-73
2021/03/01 11:47:34;;;;;;;13.13;11.93;;;25.20;33.60;;;;;;5093139;28;20440;-75
2021/03/01 11:50:00;;;;;;;14.43;13.13;;;25.60;32.70;;;;;;5093168;28;20847;-73
2021/03/01 11:52:26;;;;;;;14.53;13.23;;;26.00;32.60;;;;;;5093184;28;20444;-73
2021/03/01 11:54:53;;;;;;;15.30;13.80;;;26.40;31.50;;;;;;5094008;28;20460;-73
2021/03/01 11:57:20;;;;;;;14.23;12.93;;;26.70;30.50;;;;;;5093144;28;20448;-73
2021/03/01 11:59:49;;;;;;;12.90;11.80;;;27.00;29.20;;;;;;5093094;28;20482;-73
2021/03/01 12:02:15;;;;;;;13.13;11.83;;;27.20;29.30;;;;;;5093170;28;20431;-73
2021/03/01 12:04:41;;;;;;;13.73;11.97;;;27.40;29.20;;;;;;5094629;28;20996;-73
2021/03/01 12:07:07;;;;;;;13.47;12.07;;;27.70;28.30;;;;;;5096841;28;20428;-73
2021/03/01 12:09:34;;;;;;;13.33;12.00;;;28.00;27.60;;;;;;5097005;28;20436;-74
2021/03/01 12:12:01;;;;;;;12.77;11.50;;;28.30;27.40;;;;;;5096374;28;20447;-73
2021/03/01 12:14:27;;;;;;;12.93;11.80;;;28.70;27.20;;;;;;5096692;28;20475;-74
2021/03/01 12:16:53;;;;;;;11.70;10.70;;;29.00;26.70;;;;;;5097127;28;20439;-74
2021/03/01 12:19:20;;;;;;;12.60;11.60;;;29.30;25.90;;;;;;5097122;28;20475;-74
2021/03/01 12:21:46;;;;;;;13.73;12.53;;;29.60;25.20;;;;;;5096677;28;20813;-74
2021/03/01 12:24:14;;;;;;;12.90;11.70;;;29.90;25.10;;;;;;5096075;28;20443;-75
2021/03/01 12:26:41;;;;;;;12.53;11.40;;;30.00;25.10;;;;;;5096483;28;20784;-73
2021/03/01 12:29:08;;;;;;;11.67;10.67;;;30.20;24.60;;;;;;5096264;28;20424;-73
2021/03/01 12:31:34;;;;;;;11.13;10.13;;;30.50;24.10;;;;;;5096275;28;20451;-74
2021/03/01 12:34:02;;;;;;;11.20;10.23;;;30.70;23.70;;;;;;5096285;28;20451;-74
2021/03/01 12:36:28;;;;;;;11.70;10.63;;;30.90;23.60;;;;;;5096169;28;20460;-74
2021/03/01 12:38:55;;;;;;;12.20;11.10;;;31.20;23.10;;;;;;5096131;28;20481;-74
2021/03/01 12:41:22;;;;;;;11.57;10.57;;;31.40;22.60;;;;;;5096517;28;20466;-74
2021/03/01 12:43:48;;;;;;;10.27;9.27;;;31.70;22.00;;;;;;5096894;28;20956;-74